Time,TemperatureF,DewpointF,PressureIn,WindDirection,WindDirectionDegrees,WindSpeedMPH,WindSpeedGustMPH,Humidity,HourlyPrecipIn,Conditions,Clouds,dailyrainin,SoftwareType,DateUTC
2013-05-27 00:13:00,61.7,40.0,29.85,ESE,115,0.0,0.0,45,0.00,,,0.00,weatherlink.com 1.10,2013-05-27 08:13:00,
2013-05-27 00:28:00,60.3,40.0,29.85,ESE,115,0.0,0.0,47,0.00,,,0.00,weatherlink.com 1.10,2013-05-27 08:28:00,
2013-05-27 00:43:00,59.5,40.0,29.85,ESE,114,0.0,1.0,48,0.00,,,0.00,weatherlink.com 1.10,2013-05-27 08:43:00,
2013-05-27 00:58:00,58.5,40.0,29.86,ESE,115,0.0,0.0,51,0.00,,,0.00,weatherlink.com 1.10,2013-05-27 08:58:00,
2013-05-27 01:13:00,57.0,40.0,29.86,ESE,114,0.0,0.0,53,0.00,,,0.00,weatherlink.com 1.10,2013-05-27 09:13:00,
2013-05-27 01:28:00,56.1,40.0,29.86,ESE,116,0.0,0.0,55,0.00,,,0.00,weatherlink.com 1.10,2013-05-27 09:28:00,
2013-05-27 01:43:00,56.0,39.0,29.87,SW,214,1.0,1.0,54,0.00,,,0.00,weatherlink.com 1.10,2013-05-27 09:43:00,
2013-05-27 01:58:00,55.9,40.0,29.87,SE,144,0.0,1.0,55,0.00,,,0.00,weatherlink.com 1.10,2013-05-27 09:58:00,
2013-05-27 02:13:00,55.0,39.0,29.88,SSE,161,0.0,0.0,55,0.00,,,0.00,weatherlink.com 1.10,2013-05-27 10:13:00,
2013-05-27 02:28:00,54.4,39.0,29.89,SSE,161,0.0,1.0,56,0.00,,,0.00,weatherlink.com 1.10,2013-05-27 10:28:00,
2013-05-27 02:43:00,53.9,39.0,29.89,ESE,114,0.0,1.0,58,0.00,,,0.00,weatherlink.com 1.10,2013-05-27 10:43:00,
2013-05-27 02:58:00,53.3,39.0,29.89,ESE,105,0.0,1.0,58,0.00,,,0.00,weatherlink.com 1.10,2013-05-27 10:58:00,
2013-05-27 03:13:00,52.2,38.0,29.89,North,6,0.0,1.0,60,0.00,,,0.00,weatherlink.com 1.10,2013-05-27 11:13:00,
2013-05-27 03:28:00,51.6,38.0,29.90,North,6,0.0,0.0,60,0.00,,,0.00,weatherlink.com 1.10,2013-05-27 11:28:00,
2013-05-27 03:43:00,51.2,38.0,29.90,North,6,0.0,0.0,60,0.00,,,0.00,weatherlink.com 1.10,2013-05-27 11:43:00,
2013-05-27 03:58:00,51.3,37.0,29.90,North,6,0.0,0.0,59,0.00,,,0.00,weatherlink.com 1.10,2013-05-27 11:58:00,
2013-05-27 04:13:00,51.0,37.0,29.90,North,6,0.0,0.0,59,0.00,,,0.00,weatherlink.com 1.10,2013-05-27 12:13:00,
2013-05-27 04:28:00,50.2,37.0,29.90,North,6,0.0,0.0,61,0.00,,,0.00,weatherlink.com 1.10,2013-05-27 12:28:00,
2013-05-27 04:43:00,49.5,37.0,29.91,NE,53,0.0,1.0,62,0.00,,,0.00,weatherlink.com 1.10,2013-05-27 12:43:00,
2013-05-27 04:58:00,49.4,36.0,29.91,ENE,75,0.0,1.0,61,0.00,,,0.00,weatherlink.com 1.10,2013-05-27 12:58:00,
2013-05-27 05:14:00,48.7,36.0,29.91,NW,304,0.0,1.0,62,0.00,,,0.00,weatherlink.com 1.10,2013-05-27 13:14:00,
2013-05-27 05:29:00,48.7,36.0,29.91,WNW,297,0.0,0.0,62,0.00,,,0.00,weatherlink.com 1.10,2013-05-27 13:29:00,
2013-05-27 05:44:00,48.5,37.0,29.91,WNW,297,0.0,0.0,64,0.00,,,0.00,weatherlink.com 1.10,2013-05-27 13:44:00,
2013-05-27 05:59:00,49.2,37.0,29.91,WNW,297,0.0,0.0,62,0.00,,,0.00,weatherlink.com 1.10,2013-05-27 13:59:00,
2013-05-27 06:14:00,50.4,37.0,29.92,WNW,297,0.0,1.0,61,0.00,,,0.00,weatherlink.com 1.10,2013-05-27 14:14:00,
2013-05-27 06:29:00,51.7,37.0,29.91,WNW,297,0.0,1.0,57,0.00,,,0.00,weatherlink.com 1.10,2013-05-27 14:29:00,
2013-05-27 06:44:00,52.1,37.0,29.92,ENE,75,0.0,1.0,57,0.00,,,0.00,weatherlink.com 1.10,2013-05-27 14:44:00,
2013-05-27 06:59:00,52.3,37.0,29.92,ENE,76,0.0,1.0,57,0.00,,,0.00,weatherlink.com 1.10,2013-05-27 14:59:00,
2013-05-27 07:14:00,52.0,37.0,29.92,ENE,76,0.0,0.0,58,0.00,,,0.00,weatherlink.com 1.10,2013-05-27 15:14:00,
2013-05-27 07:29:00,52.2,38.0,29.92,ENE,77,0.0,1.0,59,0.00,,,0.00,weatherlink.com 1.10,2013-05-27 15:29:00,
2013-05-27 07:44:00,54.1,39.0,29.92,West,275,0.0,1.0,56,0.00,,,0.00,weatherlink.com 1.10,2013-05-27 15:44:00,
2013-05-27 07:59:00,57.4,39.0,29.92,North,8,1.0,1.0,50,0.00,,,0.00,weatherlink.com 1.10,2013-05-27 15:59:00,
2013-05-27 08:14:00,59.7,39.0,29.92,West,269,0.0,1.0,46,0.00,,,0.00,weatherlink.com 1.10,2013-05-27 16:14:00,
2013-05-27 08:29:00,62.8,39.0,29.92,SSW,203,1.0,1.0,41,0.00,,,0.00,weatherlink.com 1.10,2013-05-27 16:29:00,
2013-05-27 08:44:00,65.1,37.0,29.92,SW,232,0.0,1.0,36,0.00,,,0.00,weatherlink.com 1.10,2013-05-27 16:44:00,
2013-05-27 08:59:00,66.6,37.0,29.92,SSW,212,0.0,2.0,34,0.00,,,0.00,weatherlink.com 1.10,2013-05-27 16:59:00,
2013-05-27 09:14:00,67.2,37.0,29.92,WSW,247,0.0,1.0,33,0.00,,,0.00,weatherlink.com 1.10,2013-05-27 17:14:00,
2013-05-27 09:29:00,68.1,37.0,29.91,NW,319,0.0,3.0,32,0.00,,,0.00,weatherlink.com 1.10,2013-05-27 17:29:00,
2013-05-27 09:44:00,68.1,37.0,29.91,SSE,160,0.0,1.0,32,0.00,,,0.00,weatherlink.com 1.10,2013-05-27 17:44:00,
2013-05-27 09:59:00,68.9,37.0,29.91,SSW,208,0.0,2.0,31,0.00,,,0.00,weatherlink.com 1.10,2013-05-27 17:59:00,
2013-05-27 10:14:00,70.3,36.0,29.91,SSW,192,0.0,2.0,29,0.00,,,0.00,weatherlink.com 1.10,2013-05-27 18:14:00,
2013-05-27 10:29:00,71.6,37.0,29.90,NW,313,0.0,2.0,28,0.00,,,0.00,weatherlink.com 1.10,2013-05-27 18:29:00,
2013-05-27 10:44:00,72.2,36.0,29.90,NNE,15,0.0,1.0,27,0.00,,,0.00,weatherlink.com 1.10,2013-05-27 18:44:00,
2013-05-27 10:59:00,73.3,37.0,29.90,ENE,68,2.0,4.0,27,0.00,,,0.00,weatherlink.com 1.10,2013-05-27 18:59:00,
2013-05-27 11:14:00,74.9,38.0,29.89,SW,226,0.0,3.0,26,0.00,,,0.00,weatherlink.com 1.10,2013-05-27 19:14:00,
2013-05-27 11:29:00,74.4,39.0,29.89,NW,307,0.0,5.0,28,0.00,,,0.00,weatherlink.com 1.10,2013-05-27 19:29:00,
2013-05-27 11:44:00,75.2,38.0,29.89,NE,54,3.0,3.0,26,0.00,,,0.00,weatherlink.com 1.10,2013-05-27 19:44:00,
2013-05-27 11:59:00,76.6,39.0,29.88,East,93,1.0,2.0,26,0.00,,,0.00,weatherlink.com 1.10,2013-05-27 19:59:00,
2013-05-27 12:14:00,77.5,39.0,29.88,SSE,159,1.0,3.0,25,0.00,,,0.00,weatherlink.com 1.10,2013-05-27 20:14:00,
2013-05-27 12:29:00,77.3,38.0,29.87,ESE,113,0.0,5.0,24,0.00,,,0.00,weatherlink.com 1.10,2013-05-27 20:29:00,
2013-05-27 12:44:00,77.7,39.0,29.86,SE,130,1.0,3.0,25,0.00,,,0.00,weatherlink.com 1.10,2013-05-27 20:44:00,
2013-05-27 12:59:00,78.3,39.0,29.86,WNW,285,1.0,4.0,24,0.00,,,0.00,weatherlink.com 1.10,2013-05-27 20:59:00,
2013-05-27 13:15:00,79.8,38.0,29.86,SW,225,0.0,5.0,22,0.00,,,0.00,weatherlink.com 1.10,2013-05-27 21:15:00,
2013-05-27 13:30:00,79.9,38.0,29.85,SSE,147,2.0,6.0,22,0.00,,,0.00,weatherlink.com 1.10,2013-05-27 21:30:00,
2013-05-27 13:45:00,80.7,38.0,29.84,SW,215,1.0,4.0,22,0.00,,,0.00,weatherlink.com 1.10,2013-05-27 21:45:00,
2013-05-27 14:00:00,77.7,38.0,29.84,WNW,285,1.0,4.0,24,0.00,,,0.00,weatherlink.com 1.10,2013-05-27 22:00:00,
2013-05-27 14:15:00,76.3,38.0,29.84,West,264,0.0,2.0,25,0.00,,,0.00,weatherlink.com 1.10,2013-05-27 22:15:00,
2013-05-27 14:30:00,75.9,39.0,29.84,SSW,197,1.0,1.0,26,0.00,,,0.00,weatherlink.com 1.10,2013-05-27 22:30:00,
2013-05-27 14:45:00,76.6,38.0,29.84,ESE,117,0.0,2.0,25,0.00,,,0.00,weatherlink.com 1.10,2013-05-27 22:45:00,
2013-05-27 15:00:00,76.1,38.0,29.84,WNW,287,0.0,2.0,25,0.00,,,0.00,weatherlink.com 1.10,2013-05-27 23:00:00,
2013-05-27 15:15:00,76.8,37.0,29.84,SW,214,1.0,2.0,24,0.00,,,0.00,weatherlink.com 1.10,2013-05-27 23:15:00,
2013-05-27 15:30:00,77.6,38.0,29.84,SSW,207,1.0,3.0,24,0.00,,,0.00,weatherlink.com 1.10,2013-05-27 23:30:00,
2013-05-27 15:45:00,78.7,39.0,29.83,SE,142,1.0,3.0,24,0.00,,,0.00,weatherlink.com 1.10,2013-05-27 23:45:00,
2013-05-27 16:00:00,77.2,39.0,29.83,SSW,211,1.0,3.0,25,0.00,,,0.00,weatherlink.com 1.10,2013-05-28 00:00:00,
2013-05-27 16:15:00,76.6,39.0,29.83,SSW,203,0.0,2.0,26,0.00,,,0.00,weatherlink.com 1.10,2013-05-28 00:15:00,
2013-05-27 16:30:00,76.2,39.0,29.82,South,191,0.0,1.0,26,0.00,,,0.00,weatherlink.com 1.10,2013-05-28 00:30:00,
2013-05-27 16:45:00,76.9,37.0,29.82,East,92,2.0,2.0,24,0.00,,,0.00,weatherlink.com 1.10,2013-05-28 00:45:00,
2013-05-27 17:00:00,77.4,38.0,29.82,NNE,15,0.0,1.0,24,0.00,,,0.00,weatherlink.com 1.10,2013-05-28 01:00:00,
2013-05-27 17:15:00,78.4,36.0,29.81,WNW,291,1.0,3.0,22,0.00,,,0.00,weatherlink.com 1.10,2013-05-28 01:15:00,
2013-05-27 17:30:00,78.6,37.0,29.81,East,86,1.0,2.0,22,0.00,,,0.00,weatherlink.com 1.10,2013-05-28 01:30:00,
2013-05-27 17:45:00,77.9,35.0,29.81,West,276,0.0,2.0,21,0.00,,,0.00,weatherlink.com 1.10,2013-05-28 01:45:00,
2013-05-27 18:00:00,78.6,35.0,29.81,NW,305,2.0,2.0,21,0.00,,,0.00,weatherlink.com 1.10,2013-05-28 02:00:00,
2013-05-27 18:15:00,78.4,36.0,29.80,SW,226,0.0,2.0,22,0.00,,,0.00,weatherlink.com 1.10,2013-05-28 02:15:00,
2013-05-27 18:30:00,77.5,36.0,29.80,West,264,0.0,1.0,22,0.00,,,0.00,weatherlink.com 1.10,2013-05-28 02:30:00,
2013-05-27 18:45:00,77.0,36.0,29.80,SE,145,0.0,3.0,23,0.00,,,0.00,weatherlink.com 1.10,2013-05-28 02:45:00,
2013-05-27 19:00:00,76.8,35.0,29.80,West,276,0.0,1.0,22,0.00,,,0.00,weatherlink.com 1.10,2013-05-28 03:00:00,
2013-05-27 19:15:00,76.6,37.0,29.80,West,276,0.0,0.0,24,0.00,,,0.00,weatherlink.com 1.10,2013-05-28 03:15:00,
2013-05-27 19:30:00,76.2,37.0,29.79,West,276,0.0,0.0,24,0.00,,,0.00,weatherlink.com 1.10,2013-05-28 03:30:00,
2013-05-27 19:45:00,75.3,39.0,29.79,West,275,0.0,0.0,27,0.00,,,0.00,weatherlink.com 1.10,2013-05-28 03:45:00,
2013-05-27 20:00:00,74.6,39.0,29.79,West,276,0.0,0.0,28,0.00,,,0.00,weatherlink.com 1.10,2013-05-28 04:00:00,
2013-05-27 20:15:00,74.2,40.0,29.79,West,276,0.0,0.0,29,0.00,,,0.00,weatherlink.com 1.10,2013-05-28 04:15:00,
2013-05-27 20:30:00,73.7,40.0,29.79,West,276,0.0,0.0,30,0.00,,,0.00,weatherlink.com 1.10,2013-05-28 04:30:00,
2013-05-27 20:45:00,72.9,40.0,29.79,West,276,0.0,0.0,30,0.00,,,0.00,weatherlink.com 1.10,2013-05-28 04:45:00,
2013-05-27 21:00:00,71.8,39.0,29.79,West,275,0.0,0.0,31,0.00,,,0.00,weatherlink.com 1.10,2013-05-28 05:00:00,
2013-05-27 21:15:00,70.4,40.0,29.79,West,275,0.0,1.0,33,0.00,,,0.00,weatherlink.com 1.10,2013-05-28 05:15:00,
2013-05-27 21:30:00,69.7,39.0,29.79,West,276,0.0,1.0,33,0.00,,,0.00,weatherlink.com 1.10,2013-05-28 05:30:00,
2013-05-27 21:45:00,69.2,40.0,29.79,West,278,0.0,1.0,34,0.00,,,0.00,weatherlink.com 1.10,2013-05-28 05:45:00,
2013-05-27 22:00:00,68.4,40.0,29.79,West,278,0.0,0.0,35,0.00,,,0.00,weatherlink.com 1.10,2013-05-28 06:00:00,
2013-05-27 22:15:00,67.2,39.0,29.79,West,278,0.0,0.0,36,0.00,,,0.00,weatherlink.com 1.10,2013-05-28 06:15:00,
2013-05-27 22:30:00,65.8,39.0,29.79,West,278,0.0,1.0,38,0.00,,,0.00,weatherlink.com 1.10,2013-05-28 06:30:00,
2013-05-27 22:45:00,65.4,39.0,29.79,NNW,332,0.0,1.0,38,0.00,,,0.00,weatherlink.com 1.10,2013-05-28 06:45:00,
2013-05-27 23:00:00,65.6,38.0,29.79,NNW,331,0.0,1.0,36,0.00,,,0.00,weatherlink.com 1.10,2013-05-28 07:00:00,
2013-05-27 23:15:00,66.0,37.0,29.79,NNW,331,0.0,0.0,34,0.00,,,0.00,weatherlink.com 1.10,2013-05-28 07:15:00,
2013-05-27 23:30:00,65.5,38.0,29.80,NNW,332,0.0,0.0,37,0.00,,,0.00,weatherlink.com 1.10,2013-05-28 07:30:00,
2013-05-27 23:45:00,64.4,39.0,29.80,NNW,332,0.0,0.0,39,0.00,,,0.00,weatherlink.com 1.10,2013-05-28 07:45:00,